sensor_id;sensor_type;location;lat;lon;timestamp;pressure;altitude;pressure_sealevel;temperature;humidity
75701;BME280;64321;48.796;44.740;2023-12-20T00:03:55;101812.56;;;3.62;100.00
75701;BME280;64321;48.796;44.740;2023-12-20T00:08:57;101822.00;;;3.66;100.00
75701;BME280;64321;48.796;44.740;2023-12-20T00:14:00;101834.06;;;3.70;100.00
75701;BME280;64321;48.796;44.740;2023-12-20T00:19:02;101836.78;;;3.67;100.00
75701;BME280;64321;48.796;44.740;2023-12-20T00:24:06;101835.00;;;3.67;100.00
75701;BME280;64321;48.796;44.740;2023-12-20T00:29:09;101843.19;;;3.83;100.00
75701;BME280;64321;48.796;44.740;2023-12-20T00:34:11;101827.56;;;3.81;100.00
75701;BME280;64321;48.796;44.740;2023-12-20T00:39:14;101833.72;;;3.79;100.00
75701;BME280;64321;48.796;44.740;2023-12-20T00:44:17;101841.19;;;3.91;100.00
75701;BME280;64321;48.796;44.740;2023-12-20T00:49:19;101831.72;;;3.87;100.00
75701;BME280;64321;48.796;44.740;2023-12-20T00:54:22;101832.53;;;3.89;100.00
75701;BME280;64321;48.796;44.740;2023-12-20T00:59:25;101828.22;;;3.88;100.00
75701;BME280;64321;48.796;44.740;2023-12-20T01:04:27;101821.91;;;3.69;100.00
75701;BME280;64321;48.796;44.740;2023-12-20T01:09:30;101815.16;;;3.62;100.00
75701;BME280;64321;48.796;44.740;2023-12-20T01:14:33;101815.16;;;3.62;100.00
75701;BME280;64321;48.796;44.740;2023-12-20T01:19:35;101823.22;;;3.56;100.00
75701;BME280;64321;48.796;44.740;2023-12-20T01:24:38;101826.13;;;3.46;100.00
75701;BME280;64321;48.796;44.740;2023-12-20T01:29:41;101817.72;;;3.38;100.00
75701;BME280;64321;48.796;44.740;2023-12-20T01:34:44;101801.81;;;3.44;100.00
75701;BME280;64321;48.796;44.740;2023-12-20T01:39:47;101804.38;;;3.46;100.00
75701;BME280;64321;48.796;44.740;2023-12-20T01:44:49;101792.38;;;3.40;100.00
75701;BME280;64321;48.796;44.740;2023-12-20T01:49:52;101792.88;;;3.52;100.00
75701;BME280;64321;48.796;44.740;2023-12-20T01:54:55;101789.47;;;3.49;100.00
75701;BME280;64321;48.796;44.740;2023-12-20T02:00:04;101795.31;;;3.58;100.00
75701;BME280;64321;48.796;44.740;2023-12-20T02:05:08;101782.34;;;3.55;100.00
75701;BME280;64321;48.796;44.740;2023-12-20T02:10:11;101781.88;;;3.42;100.00
75701;BME280;64321;48.796;44.740;2023-12-20T02:15:14;101782.97;;;3.36;100.00
75701;BME280;64321;48.796;44.740;2023-12-20T02:20:17;101773.00;;;3.47;100.00
75701;BME280;64321;48.796;44.740;2023-12-20T02:25:20;101760.38;;;3.60;100.00
75701;BME280;64321;48.796;44.740;2023-12-20T02:30:23;101762.84;;;3.65;100.00
75701;BME280;64321;48.796;44.740;2023-12-20T02:35:28;101763.03;;;3.59;100.00
75701;BME280;64321;48.796;44.740;2023-12-20T02:40:32;101768.47;;;3.53;100.00
75701;BME280;64321;48.796;44.740;2023-12-20T02:45:34;101771.56;;;3.64;100.00
75701;BME280;64321;48.796;44.740;2023-12-20T02:50:37;101779.69;;;3.56;100.00
75701;BME280;64321;48.796;44.740;2023-12-20T02:55:40;101784.63;;;3.64;100.00
75701;BME280;64321;48.796;44.740;2023-12-20T03:00:42;101771.66;;;3.61;100.00
75701;BME280;64321;48.796;44.740;2023-12-20T03:05:45;101781.72;;;3.73;100.00
75701;BME280;64321;48.796;44.740;2023-12-20T03:10:48;101774.44;;;3.81;100.00
75701;BME280;64321;48.796;44.740;2023-12-20T03:15:51;101770.38;;;3.74;100.00
75701;BME280;64321;48.796;44.740;2023-12-20T03:20:54;101784.81;;;3.84;100.00
75701;BME280;64321;48.796;44.740;2023-12-20T03:25:56;101790.97;;;3.81;100.00
75701;BME280;64321;48.796;44.740;2023-12-20T03:30:59;101798.06;;;3.78;100.00
75701;BME280;64321;48.796;44.740;2023-12-20T03:36:02;101807.41;;;3.85;100.00
75701;BME280;64321;48.796;44.740;2023-12-20T03:41:05;101812.53;;;3.88;100.00
75701;BME280;64321;48.796;44.740;2023-12-20T03:46:08;101805.81;;;3.81;100.00
75701;BME280;64321;48.796;44.740;2023-12-20T03:51:11;101808.41;;;3.81;100.00
75701;BME280;64321;48.796;44.740;2023-12-20T03:56:14;101815.03;;;3.91;100.00
75701;BME280;64321;48.796;44.740;2023-12-20T04:01:16;101821.94;;;3.94;100.00
75701;BME280;64321;48.796;44.740;2023-12-20T04:06:19;101821.38;;;3.84;100.00
75701;BME280;64321;48.796;44.740;2023-12-20T04:11:22;101818.66;;;3.87;100.00
75701;BME280;64321;48.796;44.740;2023-12-20T04:16:25;101802.84;;;3.92;100.00
75701;BME280;64321;48.796;44.740;2023-12-20T04:21:27;101821.06;;;3.93;100.00
75701;BME280;64321;48.796;44.740;2023-12-20T04:26:30;101817.53;;;3.94;100.00
75701;BME280;64321;48.796;44.740;2023-12-20T04:31:33;101815.72;;;3.96;100.00
75701;BME280;64321;48.796;44.740;2023-12-20T04:36:36;101810.81;;;3.87;100.00
75701;BME280;64321;48.796;44.740;2023-12-20T04:41:38;101801.84;;;3.94;100.00
75701;BME280;64321;48.796;44.740;2023-12-20T04:46:41;101821.06;;;3.93;100.00
75701;BME280;64321;48.796;44.740;2023-12-20T04:51:43;101806.25;;;3.94;100.00
75701;BME280;64321;48.796;44.740;2023-12-20T04:56:46;101820.88;;;3.98;100.00
75701;BME280;64321;48.796;44.740;2023-12-20T05:01:49;101807.66;;;4.02;100.00
75701;BME280;64321;48.796;44.740;2023-12-20T05:06:52;101839.94;;;4.01;100.00
75701;BME280;64321;48.796;44.740;2023-12-20T05:11:54;101834.50;;;4.07;100.00
75701;BME280;64321;48.796;44.740;2023-12-20T05:16:57;101827.28;;;4.14;100.00
75701;BME280;64321;48.796;44.740;2023-12-20T05:22:00;101836.69;;;4.19;100.00
75701;BME280;64321;48.796;44.740;2023-12-20T05:27:02;101839.19;;;4.23;100.00
75701;BME280;64321;48.796;44.740;2023-12-20T05:32:05;101849.53;;;4.26;100.00
75701;BME280;64321;48.796;44.740;2023-12-20T05:37:08;101853.75;;;4.30;100.00
75701;BME280;64321;48.796;44.740;2023-12-20T05:42:11;101864.03;;;4.34;100.00
75701;BME280;64321;48.796;44.740;2023-12-20T05:47:13;101861.25;;;4.39;100.00
75701;BME280;64321;48.796;44.740;2023-12-20T05:52:16;101857.19;;;4.30;100.00
75701;BME280;64321;48.796;44.740;2023-12-20T05:57:19;101868.00;;;4.46;100.00
75701;BME280;64321;48.796;44.740;2023-12-20T06:02:22;101862.31;;;4.58;100.00
75701;BME280;64321;48.796;44.740;2023-12-20T06:07:24;101855.47;;;4.54;100.00
75701;BME280;64321;48.796;44.740;2023-12-20T06:12:27;101857.75;;;4.63;100.00
75701;BME280;64321;48.796;44.740;2023-12-20T06:17:31;101855.81;;;4.68;100.00
75701;BME280;64321;48.796;44.740;2023-12-20T06:22:35;101869.97;;;4.63;100.00
75701;BME280;64321;48.796;44.740;2023-12-20T06:27:38;101867.53;;;4.58;100.00
75701;BME280;64321;48.796;44.740;2023-12-20T06:32:41;101866.84;;;4.76;100.00
75701;BME280;64321;48.796;44.740;2023-12-20T06:37:44;101874.59;;;4.79;100.00
75701;BME280;64321;48.796;44.740;2023-12-20T06:42:47;101864.97;;;4.80;100.00
75701;BME280;64321;48.796;44.740;2023-12-20T06:48:06;101861.41;;;4.82;100.00
75701;BME280;64321;48.796;44.740;2023-12-20T06:53:09;101856.22;;;4.81;100.00
75701;BME280;64321;48.796;44.740;2023-12-20T06:58:11;101846.81;;;4.75;100.00
75701;BME280;64321;48.796;44.740;2023-12-20T07:03:14;101859.16;;;4.72;100.00
75701;BME280;64321;48.796;44.740;2023-12-20T07:08:17;101870.47;;;4.72;100.00
75701;BME280;64321;48.796;44.740;2023-12-20T07:13:20;101872.41;;;4.67;100.00
75701;BME280;64321;48.796;44.740;2023-12-20T07:18:22;101866.28;;;4.68;100.00
75701;BME280;64321;48.796;44.740;2023-12-20T07:23:25;101864.00;;;4.82;100.00
75701;BME280;64321;48.796;44.740;2023-12-20T07:28:28;101855.00;;;4.66;100.00
75701;BME280;64321;48.796;44.740;2023-12-20T07:33:31;101868.78;;;4.71;100.00
75701;BME280;64321;48.796;44.740;2023-12-20T07:38:41;101856.50;;;4.73;100.00
75701;BME280;64321;48.796;44.740;2023-12-20T07:43:44;101843.47;;;4.72;100.00
75701;BME280;64321;48.796;44.740;2023-12-20T07:48:47;101836.41;;;4.74;100.00
75701;BME280;64321;48.796;44.740;2023-12-20T07:53:49;101841.91;;;4.89;100.00
75701;BME280;64321;48.796;44.740;2023-12-20T07:58:52;101830.50;;;5.14;100.00
75701;BME280;64321;48.796;44.740;2023-12-20T08:03:58;101830.13;;;5.23;100.00
75701;BME280;64321;48.796;44.740;2023-12-20T08:09:00;101828.84;;;5.33;100.00
75701;BME280;64321;48.796;44.740;2023-12-20T08:14:08;101842.84;;;5.32;100.00
75701;BME280;64321;48.796;44.740;2023-12-20T08:19:10;101823.03;;;5.47;100.00
75701;BME280;64321;48.796;44.740;2023-12-20T08:24:13;101825.59;;;5.48;100.00
75701;BME280;64321;48.796;44.740;2023-12-20T08:29:16;101810.56;;;5.53;100.00
75701;BME280;64321;48.796;44.740;2023-12-20T08:34:18;101803.31;;;5.58;100.00
75701;BME280;64321;48.796;44.740;2023-12-20T08:39:21;101811.19;;;5.58;100.00
75701;BME280;64321;48.796;44.740;2023-12-20T08:44:24;101800.06;;;5.74;100.00
75701;BME280;64321;48.796;44.740;2023-12-20T08:49:27;101791.16;;;5.78;100.00
75701;BME280;64321;48.796;44.740;2023-12-20T08:54:30;101794.22;;;5.89;100.00
75701;BME280;64321;48.796;44.740;2023-12-20T08:59:33;101788.34;;;5.82;100.00
75701;BME280;64321;48.796;44.740;2023-12-20T09:04:35;101782.91;;;5.87;100.00
75701;BME280;64321;48.796;44.740;2023-12-20T09:09:38;101783.56;;;5.92;100.00
75701;BME280;64321;48.796;44.740;2023-12-20T09:14:41;101778.00;;;6.00;100.00
75701;BME280;64321;48.796;44.740;2023-12-20T09:19:43;101758.53;;;6.05;100.00
75701;BME280;64321;48.796;44.740;2023-12-20T09:24:47;101766.47;;;6.04;100.00
75701;BME280;64321;48.796;44.740;2023-12-20T09:29:49;101762.44;;;6.15;100.00
75701;BME280;64321;48.796;44.740;2023-12-20T09:34:52;101756.41;;;6.32;100.00
75701;BME280;64321;48.796;44.740;2023-12-20T09:39:55;101752.47;;;6.23;100.00
75701;BME280;64321;48.796;44.740;2023-12-20T09:44:58;101752.81;;;6.35;100.00
75701;BME280;64321;48.796;44.740;2023-12-20T09:50:05;101747.00;;;6.47;100.00
75701;BME280;64321;48.796;44.740;2023-12-20T09:55:08;101728.91;;;6.59;100.00
75701;BME280;64321;48.796;44.740;2023-12-20T10:00:13;101731.63;;;6.58;100.00
75701;BME280;64321;48.796;44.740;2023-12-20T10:05:17;101744.06;;;6.72;100.00
75701;BME280;64321;48.796;44.740;2023-12-20T10:10:23;101726.84;;;6.66;100.00
75701;BME280;64321;48.796;44.740;2023-12-20T10:15:39;101736.13;;;6.73;100.00
75701;BME280;64321;48.796;44.740;2023-12-20T10:20:44;101738.97;;;6.69;100.00
75701;BME280;64321;48.796;44.740;2023-12-20T10:25:57;101737.97;;;6.71;100.00
75701;BME280;64321;48.796;44.740;2023-12-20T10:31:04;101725.69;;;6.72;100.00
75701;BME280;64321;48.796;44.740;2023-12-20T10:36:09;101734.16;;;6.78;100.00
75701;BME280;64321;48.796;44.740;2023-12-20T10:41:12;101732.06;;;6.85;100.00
75701;BME280;64321;48.796;44.740;2023-12-20T10:46:19;101717.78;;;6.90;100.00
75701;BME280;64321;48.796;44.740;2023-12-20T10:51:23;101724.00;;;7.07;100.00
75701;BME280;64321;48.796;44.740;2023-12-20T10:56:32;101707.91;;;6.95;100.00
75701;BME280;64321;48.796;44.740;2023-12-20T11:01:35;101707.16;;;7.11;100.00
75701;BME280;64321;48.796;44.740;2023-12-20T11:06:53;101715.81;;;7.13;100.00
75701;BME280;64321;48.796;44.740;2023-12-20T11:12:04;101686.84;;;7.14;100.00
75701;BME280;64321;48.796;44.740;2023-12-20T11:17:09;101713.03;;;7.16;100.00
75701;BME280;64321;48.796;44.740;2023-12-20T11:22:15;101711.78;;;7.23;100.00
75701;BME280;64321;48.796;44.740;2023-12-20T11:27:19;101706.16;;;7.13;100.00
75701;BME280;64321;48.796;44.740;2023-12-20T11:37:38;101707.59;;;7.19;100.00
75701;BME280;64321;48.796;44.740;2023-12-20T11:42:50;101702.22;;;7.22;100.00
75701;BME280;64321;48.796;44.740;2023-12-20T11:47:54;101708.88;;;7.29;100.00
75701;BME280;64321;48.796;44.740;2023-12-20T11:52:57;101699.91;;;7.33;100.00
75701;BME280;64321;48.796;44.740;2023-12-20T11:57:59;101694.41;;;7.20;100.00
75701;BME280;64321;48.796;44.740;2023-12-20T12:03:02;101725.91;;;7.20;100.00
75701;BME280;64321;48.796;44.740;2023-12-20T12:08:06;101732.44;;;7.30;100.00
75701;BME280;64321;48.796;44.740;2023-12-20T12:13:10;101722.84;;;7.29;100.00
75701;BME280;64321;48.796;44.740;2023-12-20T12:18:16;101741.69;;;7.38;100.00
75701;BME280;64321;48.796;44.740;2023-12-20T12:23:25;101744.72;;;7.30;100.00
75701;BME280;64321;48.796;44.740;2023-12-20T12:28:28;101745.56;;;7.30;100.00
75701;BME280;64321;48.796;44.740;2023-12-20T12:33:34;101754.44;;;7.28;100.00
75701;BME280;64321;48.796;44.740;2023-12-20T12:38:37;101747.66;;;7.24;100.00
75701;BME280;64321;48.796;44.740;2023-12-20T12:43:40;101764.63;;;7.17;100.00
75701;BME280;64321;48.796;44.740;2023-12-20T12:48:42;101737.28;;;7.21;100.00
75701;BME280;64321;48.796;44.740;2023-12-20T12:53:48;101748.41;;;7.26;100.00
75701;BME280;64321;48.796;44.740;2023-12-20T12:58:51;101759.63;;;7.12;100.00
75701;BME280;64321;48.796;44.740;2023-12-20T13:03:53;101743.78;;;7.14;100.00
75701;BME280;64321;48.796;44.740;2023-12-20T13:08:56;101740.53;;;7.09;100.00
75701;BME280;64321;48.796;44.740;2023-12-20T13:13:59;101746.63;;;7.09;100.00
75701;BME280;64321;48.796;44.740;2023-12-20T13:19:02;101737.34;;;7.02;100.00
75701;BME280;64321;48.796;44.740;2023-12-20T13:24:05;101730.69;;;6.95;100.00
75701;BME280;64321;48.796;44.740;2023-12-20T13:29:07;101731.47;;;6.97;100.00
75701;BME280;64321;48.796;44.740;2023-12-20T13:34:10;101758.09;;;6.89;100.00
75701;BME280;64321;48.796;44.740;2023-12-20T13:39:13;101730.28;;;6.85;100.00
75701;BME280;64321;48.796;44.740;2023-12-20T13:44:16;101731.34;;;6.81;100.00
75701;BME280;64321;48.796;44.740;2023-12-20T13:49:18;101713.28;;;6.75;100.00
75701;BME280;64321;48.796;44.740;2023-12-20T13:54:21;101720.09;;;6.79;100.00
75701;BME280;64321;48.796;44.740;2023-12-20T13:59:24;101734.16;;;6.78;100.00
75701;BME280;64321;48.796;44.740;2023-12-20T14:04:28;101730.88;;;6.73;100.00
75701;BME280;64321;48.796;44.740;2023-12-20T14:09:44;101748.88;;;6.81;100.00
75701;BME280;64321;48.796;44.740;2023-12-20T14:14:48;101744.78;;;6.75;100.00
75701;BME280;64321;48.796;44.740;2023-12-20T14:19:51;101743.94;;;6.75;100.00
75701;BME280;64321;48.796;44.740;2023-12-20T14:24:54;101755.63;;;6.86;100.00
75701;BME280;64321;48.796;44.740;2023-12-20T14:29:57;101763.50;;;6.86;100.00
75701;BME280;64321;48.796;44.740;2023-12-20T14:34:59;101752.53;;;6.78;100.00
75701;BME280;64321;48.796;44.740;2023-12-20T14:40:08;101750.03;;;6.75;100.00
75701;BME280;64321;48.796;44.740;2023-12-20T14:45:19;101750.75;;;6.79;100.00
75701;BME280;64321;48.796;44.740;2023-12-20T14:50:22;101751.66;;;6.78;100.00
75701;BME280;64321;48.796;44.740;2023-12-20T14:55:25;101763.09;;;6.77;100.00
75701;BME280;64321;48.796;44.740;2023-12-20T15:00:30;101761.94;;;6.82;100.00
75701;BME280;64321;48.796;44.740;2023-12-20T15:05:32;101772.78;;;6.93;100.00
75701;BME280;64321;48.796;44.740;2023-12-20T15:10:35;101773.56;;;6.95;100.00
75701;BME280;64321;48.796;44.740;2023-12-20T15:15:38;101781.09;;;6.84;100.00
75701;BME280;64321;48.796;44.740;2023-12-20T15:20:40;101795.59;;;6.74;100.00
75701;BME280;64321;48.796;44.740;2023-12-20T15:25:44;101794.53;;;6.78;100.00
75701;BME280;64321;48.796;44.740;2023-12-20T15:30:47;101783.38;;;6.73;100.00
75701;BME280;64321;48.796;44.740;2023-12-20T15:35:49;101790.59;;;6.68;100.00
75701;BME280;64321;48.796;44.740;2023-12-20T15:40:52;101780.69;;;6.75;100.00
75701;BME280;64321;48.796;44.740;2023-12-20T15:45:55;101778.13;;;6.73;100.00
75701;BME280;64321;48.796;44.740;2023-12-20T15:50:57;101773.88;;;6.71;100.00
75701;BME280;64321;48.796;44.740;2023-12-20T15:56:00;101773.81;;;6.72;100.00
75701;BME280;64321;48.796;44.740;2023-12-20T16:01:03;101777.50;;;6.68;100.00
75701;BME280;64321;48.796;44.740;2023-12-20T16:06:06;101760.53;;;6.75;100.00
75701;BME280;64321;48.796;44.740;2023-12-20T16:11:09;101749.41;;;6.70;100.00
75701;BME280;64321;48.796;44.740;2023-12-20T16:16:12;101757.28;;;6.70;100.00
75701;BME280;64321;48.796;44.740;2023-12-20T16:21:14;101762.59;;;6.69;100.00
75701;BME280;64321;48.796;44.740;2023-12-20T16:26:17;101767.63;;;6.73;100.00
75701;BME280;64321;48.796;44.740;2023-12-20T16:31:20;101754.44;;;6.75;100.00
75701;BME280;64321;48.796;44.740;2023-12-20T16:36:23;101760.16;;;6.83;100.00
75701;BME280;64321;48.796;44.740;2023-12-20T16:41:25;101756.53;;;6.85;100.00
75701;BME280;64321;48.796;44.740;2023-12-20T16:46:28;101742.47;;;6.86;100.00
75701;BME280;64321;48.796;44.740;2023-12-20T16:51:31;101756.47;;;6.87;100.00
75701;BME280;64321;48.796;44.740;2023-12-20T16:56:33;101756.41;;;6.88;100.00
75701;BME280;64321;48.796;44.740;2023-12-20T17:01:36;101751.00;;;6.91;100.00
75701;BME280;64321;48.796;44.740;2023-12-20T17:06:39;101746.75;;;6.89;100.00
75701;BME280;64321;48.796;44.740;2023-12-20T17:11:41;101744.63;;;6.97;100.00
75701;BME280;64321;48.796;44.740;2023-12-20T17:16:44;101747.00;;;7.02;100.00
75701;BME280;64321;48.796;44.740;2023-12-20T17:21:47;101748.53;;;7.06;100.00
75701;BME280;64321;48.796;44.740;2023-12-20T17:26:50;101748.13;;;7.15;100.00
75701;BME280;64321;48.796;44.740;2023-12-20T17:31:53;101738.03;;;7.06;100.00
75701;BME280;64321;48.796;44.740;2023-12-20T17:36:56;101751.19;;;7.06;100.00
75701;BME280;64321;48.796;44.740;2023-12-20T17:41:58;101743.22;;;7.07;100.00
75701;BME280;64321;48.796;44.740;2023-12-20T17:47:01;101751.75;;;7.12;100.00
75701;BME280;64321;48.796;44.740;2023-12-20T17:52:04;101755.81;;;7.18;100.00
75701;BME280;64321;48.796;44.740;2023-12-20T17:57:08;101749.06;;;7.31;100.00
75701;BME280;64321;48.796;44.740;2023-12-20T18:02:11;101747.50;;;7.27;100.00
75701;BME280;64321;48.796;44.740;2023-12-20T18:07:14;101756.00;;;7.32;100.00
75701;BME280;64321;48.796;44.740;2023-12-20T18:12:16;101754.97;;;7.35;100.00
75701;BME280;64321;48.796;44.740;2023-12-20T18:17:19;101766.13;;;7.40;100.00
75701;BME280;64321;48.796;44.740;2023-12-20T18:22:22;101766.19;;;7.38;100.00
75701;BME280;64321;48.796;44.740;2023-12-20T18:27:25;101758.22;;;7.40;100.00
75701;BME280;64321;48.796;44.740;2023-12-20T18:32:28;101766.75;;;7.45;100.00
75701;BME280;64321;48.796;44.740;2023-12-20T18:37:30;101769.94;;;7.34;100.00
75701;BME280;64321;48.796;44.740;2023-12-20T18:42:33;101783.81;;;7.36;100.00
75701;BME280;64321;48.796;44.740;2023-12-20T18:47:36;101782.03;;;7.37;100.00
75701;BME280;64321;48.796;44.740;2023-12-20T18:52:38;101777.63;;;7.37;100.00
75701;BME280;64321;48.796;44.740;2023-12-20T18:57:42;101774.06;;;7.38;100.00
75701;BME280;64321;48.796;44.740;2023-12-20T19:02:45;101778.56;;;7.36;100.00
75701;BME280;64321;48.796;44.740;2023-12-20T19:07:47;101776.56;;;7.41;100.00
75701;BME280;64321;48.796;44.740;2023-12-20T19:12:51;101770.44;;;7.41;100.00
75701;BME280;64321;48.796;44.740;2023-12-20T19:17:54;101772.38;;;7.37;100.00
75701;BME280;64321;48.796;44.740;2023-12-20T19:22:56;101769.59;;;7.40;100.00
75701;BME280;64321;48.796;44.740;2023-12-20T19:27:59;101766.81;;;7.43;100.00
75701;BME280;64321;48.796;44.740;2023-12-20T19:33:02;101767.38;;;7.50;100.00
75701;BME280;64321;48.796;44.740;2023-12-20T19:38:06;101760.34;;;7.50;100.00
75701;BME280;64321;48.796;44.740;2023-12-20T19:43:08;101769.00;;;7.52;100.00
75701;BME280;64321;48.796;44.740;2023-12-20T19:48:11;101768.22;;;7.50;100.00
75701;BME280;64321;48.796;44.740;2023-12-20T19:53:14;101785.94;;;7.47;100.00
75701;BME280;64321;48.796;44.740;2023-12-20T19:58:17;101779.25;;;7.40;100.00
75701;BME280;64321;48.796;44.740;2023-12-20T20:03:19;101773.47;;;7.33;100.00
75701;BME280;64321;48.796;44.740;2023-12-20T20:08:24;101780.88;;;7.25;100.00
75701;BME280;64321;48.796;44.740;2023-12-20T20:13:28;101790.69;;;7.21;100.00
75701;BME280;64321;48.796;44.740;2023-12-20T20:18:31;101784.72;;;7.18;100.00
75701;BME280;64321;48.796;44.740;2023-12-20T20:23:33;101788.59;;;7.11;100.00
75701;BME280;64321;48.796;44.740;2023-12-20T20:28:36;101790.56;;;7.06;100.00
75701;BME280;64321;48.796;44.740;2023-12-20T20:33:39;101800.09;;;7.08;100.00
75701;BME280;64321;48.796;44.740;2023-12-20T20:38:42;101800.28;;;7.04;100.00
75701;BME280;64321;48.796;44.740;2023-12-20T20:43:44;101793.97;;;7.08;100.00
75701;BME280;64321;48.796;44.740;2023-12-20T20:48:47;101798.03;;;7.15;100.00
75701;BME280;64321;48.796;44.740;2023-12-20T20:53:53;101795.41;;;7.15;100.00
75701;BME280;64321;48.796;44.740;2023-12-20T20:59:12;101795.06;;;7.21;100.00
75701;BME280;64321;48.796;44.740;2023-12-20T21:04:14;101784.28;;;7.27;100.00
75701;BME280;64321;48.796;44.740;2023-12-20T21:09:18;101780.72;;;7.28;100.00
75701;BME280;64321;48.796;44.740;2023-12-20T21:14:21;101773.47;;;7.33;100.00
75701;BME280;64321;48.796;44.740;2023-12-20T21:19:23;101771.91;;;7.29;100.00
75701;BME280;64321;48.796;44.740;2023-12-20T21:24:26;101761.25;;;7.32;100.00
75701;BME280;64321;48.796;44.740;2023-12-20T21:29:29;101761.72;;;7.40;100.00
75701;BME280;64321;48.796;44.740;2023-12-20T21:34:31;101760.22;;;7.35;100.00
75701;BME280;64321;48.796;44.740;2023-12-20T21:39:34;101762.78;;;7.36;100.00
75701;BME280;64321;48.796;44.740;2023-12-20T21:44:37;101754.31;;;7.31;100.00
75701;BME280;64321;48.796;44.740;2023-12-20T21:49:39;101750.13;;;7.27;100.00
75701;BME280;64321;48.796;44.740;2023-12-20T21:54:42;101753.03;;;7.21;100.00
75701;BME280;64321;48.796;44.740;2023-12-20T21:59:44;101760.31;;;7.16;100.00
75701;BME280;64321;48.796;44.740;2023-12-20T22:04:47;101762.94;;;6.99;100.00
75701;BME280;64321;48.796;44.740;2023-12-20T22:09:50;101757.72;;;6.61;100.00
75701;BME280;64321;48.796;44.740;2023-12-20T22:14:53;101764.22;;;6.34;100.00
75701;BME280;64321;48.796;44.740;2023-12-20T22:19:55;101754.34;;;6.01;100.00
75701;BME280;64321;48.796;44.740;2023-12-20T22:24:58;101753.34;;;5.83;100.00
75701;BME280;64321;48.796;44.740;2023-12-20T22:30:01;101753.28;;;5.65;100.00
75701;BME280;64321;48.796;44.740;2023-12-20T22:35:06;101763.44;;;5.52;100.00
75701;BME280;64321;48.796;44.740;2023-12-20T22:40:10;101762.84;;;5.45;100.00
75701;BME280;64321;48.796;44.740;2023-12-20T22:45:13;101758.44;;;5.26;100.00
75701;BME280;64321;48.796;44.740;2023-12-20T22:50:16;101764.38;;;5.09;100.00
75701;BME280;64321;48.796;44.740;2023-12-20T22:55:18;101756.44;;;4.88;100.00
75701;BME280;64321;48.796;44.740;2023-12-20T23:00:21;101746.47;;;4.76;100.00
75701;BME280;64321;48.796;44.740;2023-12-20T23:05:26;101745.38;;;4.60;100.00
75701;BME280;64321;48.796;44.740;2023-12-20T23:10:29;101738.19;;;4.43;100.00
75701;BME280;64321;48.796;44.740;2023-12-20T23:15:34;101747.25;;;4.33;100.00
75701;BME280;64321;48.796;44.740;2023-12-20T23:20:37;101754.88;;;4.16;100.00
75701;BME280;64321;48.796;44.740;2023-12-20T23:25:40;101743.94;;;4.06;100.00
75701;BME280;64321;48.796;44.740;2023-12-20T23:30:43;101747.16;;;3.90;100.00
75701;BME280;64321;48.796;44.740;2023-12-20T23:35:46;101740.31;;;3.86;100.00
75701;BME280;64321;48.796;44.740;2023-12-20T23:40:48;101733.75;;;3.75;100.00
75701;BME280;64321;48.796;44.740;2023-12-20T23:45:51;101734.94;;;3.65;100.00
75701;BME280;64321;48.796;44.740;2023-12-20T23:50:54;101727.13;;;3.65;100.00
75701;BME280;64321;48.796;44.740;2023-12-20T23:55:56;101738.41;;;3.66;100.00
